createdAt,value
2018-10-19T00:03:18.953Z,6.54
2018-10-19T00:05:48.001Z,6.50
2018-10-19T00:10:52.842Z,6.65
2018-10-19T00:13:21.849Z,6.59
2018-10-19T00:15:50.926Z,6.58
2018-10-19T00:18:19.973Z,6.53
2018-10-19T00:20:49.037Z,6.43
2018-10-19T00:23:18.226Z,6.40
2018-10-19T00:25:47.397Z,6.37
2018-10-19T00:28:16.443Z,6.28
2018-10-19T00:30:46.471Z,6.17
2018-10-19T00:33:15.626Z,6.14
2018-10-19T00:35:44.655Z,6.17
2018-10-19T00:38:13.658Z,6.14
2018-10-19T00:40:42.707Z,6.05
2018-10-19T00:43:11.751Z,6.01
2018-10-19T00:45:41.859Z,5.96
2018-10-19T00:50:46.604Z,6.07
2018-10-19T00:53:15.786Z,6.07
2018-10-19T00:55:44.806Z,6.01
2018-10-19T01:00:49.602Z,6.01
2018-10-19T01:03:18.754Z,5.95
2018-10-19T01:08:23.484Z,5.95
2018-10-19T01:10:52.541Z,5.89
2018-10-19T01:13:21.580Z,5.81
2018-10-19T01:15:50.641Z,5.82
2018-10-19T01:18:19.686Z,5.82
2018-10-19T01:20:48.741Z,5.85
2018-10-19T01:23:19.786Z,5.80
2018-10-19T01:25:48.845Z,5.75
2018-10-19T01:28:19.824Z,5.72
2018-10-19T01:33:25.665Z,5.77
2018-10-19T01:35:54.850Z,5.83
2018-10-19T01:38:23.901Z,5.76
2018-10-19T01:40:53.001Z,5.66
2018-10-19T01:45:58.689Z,5.60
2018-10-19T01:48:27.733Z,5.55
2018-10-19T01:50:56.832Z,5.47
2018-10-19T01:53:25.866Z,5.50
2018-10-19T01:58:30.653Z,5.38
2018-10-19T02:01:00.641Z,5.34
2018-10-19T02:03:29.692Z,5.37
2018-10-19T02:08:34.445Z,5.44
2018-10-19T02:14:10.241Z,5.33
2018-10-19T02:16:39.285Z,5.25
2018-10-19T02:19:08.327Z,5.17
2018-10-19T02:21:37.381Z,5.16
2018-10-19T02:24:06.438Z,5.18
2018-10-19T02:29:11.295Z,5.18
2018-10-19T02:31:40.303Z,5.23
2018-10-19T02:34:09.344Z,5.18
2018-10-19T02:36:38.397Z,5.19
2018-10-19T02:39:07.640Z,5.14
2018-10-19T02:41:37.657Z,5.09
2018-10-19T02:44:06.695Z,5.07
2018-10-19T02:46:35.785Z,5.08
2018-10-19T02:51:40.509Z,5.08
2018-10-19T02:54:09.568Z,5.04
2018-10-19T02:56:38.607Z,5.13
2018-10-19T03:01:43.401Z,5.08
2018-10-19T03:06:48.196Z,5.07
2018-10-19T03:09:17.309Z,5.18
2018-10-19T03:11:46.297Z,5.07
2018-10-19T03:16:51.846Z,5.17
2018-10-19T03:19:20.880Z,5.27
2018-10-19T03:21:49.933Z,5.31
2018-10-19T03:24:18.985Z,5.47
2018-10-19T03:26:48.029Z,5.44
2018-10-19T03:29:17.175Z,5.40
2018-10-19T03:31:46.145Z,5.37
2018-10-19T03:34:15.308Z,5.30
2018-10-19T03:36:44.357Z,5.18
2018-10-19T03:41:49.106Z,5.06
2018-10-19T03:44:18.166Z,5.11
2018-10-19T03:46:47.217Z,5.05
2018-10-19T03:49:16.401Z,5.02
2018-10-19T03:51:45.335Z,5.01
2018-10-19T03:54:14.372Z,4.97
2018-10-19T03:56:43.429Z,4.99
2018-10-19T03:59:12.557Z,5.08
2018-10-19T04:01:42.467Z,5.21
2018-10-19T04:04:11.521Z,5.22
2018-10-19T04:11:52.109Z,5.38
2018-10-19T04:14:21.160Z,5.32
2018-10-19T04:19:25.985Z,5.45
2018-10-19T04:21:55.033Z,5.56
2018-10-19T04:24:25.093Z,5.50
2018-10-19T04:26:54.192Z,5.38
2018-10-19T04:29:23.215Z,5.32
2018-10-19T04:31:52.268Z,5.39
2018-10-19T04:36:58.017Z,5.53
2018-10-19T04:39:27.074Z,5.62
2018-10-19T04:41:56.226Z,5.82
2018-10-19T04:44:25.196Z,5.83
2018-10-19T04:49:30.020Z,5.97
2018-10-19T04:54:34.768Z,6.16
2018-10-19T04:57:03.904Z,6.04
2018-10-19T04:59:32.967Z,6.17
2018-10-19T05:02:02.016Z,6.21
2018-10-19T05:07:06.801Z,6.51
2018-10-19T05:12:11.561Z,6.24
2018-10-19T05:14:40.623Z,6.20
2018-10-19T05:19:45.411Z,5.88
2018-10-19T05:22:14.467Z,5.88
2018-10-19T05:24:43.552Z,5.92
2018-10-19T05:29:48.365Z,5.81
2018-10-19T05:32:18.456Z,5.98
2018-10-19T05:34:48.471Z,6.02
2018-10-19T05:37:17.519Z,6.09
2018-10-19T05:39:47.625Z,6.09
2018-10-19T05:42:16.705Z,6.12
2018-10-19T05:44:45.758Z,6.31
2018-10-19T05:47:14.939Z,6.42
2018-10-19T05:49:43.965Z,6.53
2018-10-19T05:52:13.110Z,6.82
2018-10-19T05:54:42.085Z,6.93
2018-10-19T05:57:11.134Z,7.16
2018-10-19T05:59:43.841Z,7.34
2018-10-19T06:02:14.859Z,7.41
2018-10-19T06:04:43.833Z,7.49
2018-10-19T06:07:12.912Z,7.44
2018-10-19T06:09:45.286Z,7.30
2018-10-19T06:14:58.801Z,6.99
2018-10-19T06:20:03.613Z,6.93
2018-10-19T06:22:32.701Z,7.03
2018-10-19T06:25:02.839Z,7.38
2018-10-19T06:27:31.888Z,7.60
2018-10-19T06:30:00.935Z,7.58
2018-10-19T06:32:30.006Z,7.40
2018-10-19T06:34:59.105Z,7.34
2018-10-19T06:37:28.147Z,7.31
2018-10-19T06:39:57.206Z,7.29
2018-10-19T06:42:26.270Z,7.42
2018-10-19T06:44:55.322Z,7.40
2018-10-19T06:47:27.490Z,7.43
2018-10-19T06:49:56.833Z,7.47
2018-10-19T06:52:25.914Z,7.50
2018-10-19T06:54:55.030Z,7.86
2018-10-19T07:00:08.612Z,7.57
2018-10-19T07:02:37.655Z,7.91
2018-10-19T07:05:06.809Z,8.29
2018-10-19T07:07:39.027Z,8.80
2018-10-19T07:10:08.102Z,8.58
2018-10-19T07:12:37.661Z,8.59
2018-10-19T07:15:07.700Z,8.41
2018-10-19T07:17:37.736Z,8.53
2018-10-19T07:20:06.888Z,8.12
2018-10-19T07:22:38.042Z,8.13
2018-10-19T07:25:10.732Z,8.20
2018-10-19T07:27:39.787Z,8.65
2018-10-19T07:32:44.554Z,9.76
2018-10-19T07:35:13.660Z,10.18
2018-10-19T07:37:42.686Z,10.32
2018-10-19T07:40:11.737Z,10.23
2018-10-19T07:42:50.301Z,9.84
2018-10-19T07:45:19.346Z,9.41
2018-10-19T07:50:24.098Z,10.53
2018-10-19T07:55:28.846Z,10.96
2018-10-19T08:00:35.683Z,10.66
2018-10-19T08:03:05.618Z,9.58
2018-10-19T08:05:34.669Z,10.39
2018-10-19T08:08:03.767Z,10.89
2018-10-19T08:10:36.361Z,11.32
2018-10-19T08:13:05.461Z,10.66
2018-10-19T08:15:39.493Z,10.46
2018-10-19T08:18:09.111Z,9.97
2018-10-19T08:20:41.152Z,9.99
2018-10-19T08:23:13.266Z,9.92
2018-10-19T08:25:42.265Z,10.69
2018-10-19T08:28:16.687Z,11.38
2018-10-19T08:30:45.836Z,11.03
2018-10-19T08:33:14.889Z,11.70
2018-10-19T08:35:43.947Z,12.10
2018-10-19T08:40:50.763Z,12.36
2018-10-19T08:43:20.042Z,12.33
2018-10-19T08:45:48.937Z,12.42
2018-10-19T08:50:54.748Z,12.06
2018-10-19T08:53:23.785Z,12.74
2018-10-19T08:55:52.807Z,12.67
2018-10-19T08:58:21.927Z,12.36
2018-10-19T09:00:53.329Z,11.97
2018-10-19T09:03:26.211Z,12.37
2018-10-19T09:05:56.193Z,12.76
2018-10-19T09:08:25.264Z,13.22
2018-10-19T09:10:54.404Z,13.16
2018-10-19T09:13:23.703Z,13.19
2018-10-19T09:15:52.765Z,13.61
2018-10-19T09:18:24.770Z,13.81
2018-10-19T09:26:07.357Z,14.83
2018-10-19T09:28:36.619Z,15.47
2018-10-19T09:31:10.416Z,16.70
2018-10-19T09:33:39.579Z,18.10
2018-10-19T09:36:08.714Z,19.78
2018-10-19T09:38:38.653Z,19.27
2018-10-19T09:41:08.857Z,18.82
2018-10-19T09:43:37.788Z,18.07
2018-10-19T09:48:43.097Z,17.90
2018-10-19T09:51:12.301Z,16.68
2018-10-19T09:53:41.213Z,16.14
2018-10-19T09:56:10.322Z,15.72
2018-10-19T09:58:39.346Z,15.90
2018-10-19T10:01:08.480Z,14.98
2018-10-19T10:03:37.615Z,15.46
2018-10-19T10:06:06.739Z,15.47
2018-10-19T10:08:35.768Z,15.70
2018-10-19T10:11:04.841Z,14.61
2018-10-19T10:13:34.014Z,15.05
2018-10-19T10:16:04.053Z,15.21
2018-10-19T10:18:36.825Z,15.39
2018-10-19T10:21:05.906Z,14.96
2018-10-19T10:23:36.904Z,15.00
2018-10-19T10:26:05.946Z,15.44
2018-10-19T10:28:34.999Z,15.19
2018-10-19T10:33:40.777Z,15.84
2018-10-19T10:36:09.823Z,16.23
2018-10-19T10:38:38.934Z,15.85
2018-10-19T10:41:15.653Z,15.99
2018-10-19T10:48:58.226Z,17.32
2018-10-19T10:51:27.224Z,17.14
2018-10-19T10:53:58.050Z,20.45
2018-10-19T10:59:04.147Z,22.52
2018-10-19T11:01:33.298Z,22.85
2018-10-19T11:04:05.795Z,22.29
2018-10-19T11:09:10.558Z,22.44
2018-10-19T11:11:39.606Z,23.27
2018-10-19T11:16:44.408Z,23.47
2018-10-19T11:19:13.509Z,24.96
2018-10-19T11:24:18.248Z,27.03
2018-10-19T11:26:47.389Z,25.66
2018-10-19T11:29:17.051Z,26.97
2018-10-19T11:31:48.069Z,26.80
2018-10-19T11:34:18.152Z,28.60
2018-10-19T11:36:47.171Z,28.79
2018-10-19T11:39:16.232Z,28.46
2018-10-19T11:41:45.291Z,29.02
2018-10-19T11:44:14.352Z,26.94
2018-10-19T11:46:44.390Z,26.21
2018-10-19T11:49:13.514Z,29.56
2018-10-19T11:54:20.305Z,28.27
2018-10-19T11:56:49.366Z,30.42
2018-10-19T11:59:18.429Z,27.38
2018-10-19T12:01:48.416Z,26.26
2018-10-19T12:06:53.319Z,27.77
2018-10-19T12:09:22.385Z,30.01
2018-10-19T12:11:52.380Z,29.08
2018-10-19T12:14:21.441Z,30.83
2018-10-19T12:16:51.596Z,30.91
2018-10-19T12:19:20.567Z,30.59
2018-10-19T12:21:49.641Z,31.38
2018-10-19T12:24:20.689Z,30.80
2018-10-19T12:26:49.746Z,26.75
2018-10-19T12:31:54.653Z,30.03
2018-10-19T12:34:23.706Z,31.26
2018-10-19T12:36:53.762Z,29.52
2018-10-19T12:41:58.649Z,30.60
2018-10-19T12:44:27.698Z,28.61
2018-10-19T12:47:30.063Z,31.69
2018-10-19T12:49:59.073Z,30.07
2018-10-19T12:52:29.069Z,30.53
2018-10-19T12:54:58.171Z,32.63
2018-10-19T12:57:28.198Z,30.52
2018-10-19T12:59:58.145Z,30.52
2018-10-19T13:02:27.334Z,28.27
2018-10-19T13:04:56.394Z,29.82
2018-10-19T13:07:25.460Z,31.87
2018-10-19T13:09:54.537Z,31.76
2018-10-19T13:12:23.582Z,29.94
2018-10-19T13:17:28.486Z,32.78
2018-10-19T13:19:57.576Z,32.88
2018-10-19T13:22:27.554Z,30.89
2018-10-19T13:27:32.454Z,31.42
2018-10-19T13:30:01.532Z,28.36
2018-10-19T13:32:30.585Z,28.68
2018-10-19T13:35:00.694Z,31.68
2018-10-19T13:37:30.653Z,32.83
2018-10-19T13:42:35.561Z,31.71
2018-10-19T13:45:04.675Z,31.43
2018-10-19T13:47:33.698Z,29.94
2018-10-19T13:50:02.830Z,29.57
2018-10-19T13:52:31.919Z,28.51
2018-10-19T13:57:36.982Z,25.06
2018-10-19T14:00:10.375Z,26.76
2018-10-19T14:02:39.449Z,27.26
2018-10-19T14:05:08.651Z,28.68
2018-10-19T14:07:37.678Z,27.56
2018-10-19T14:10:06.753Z,26.54
2018-10-19T14:12:35.797Z,27.31
2018-10-19T14:15:05.058Z,26.71
2018-10-19T14:17:36.011Z,23.09
2018-10-19T14:22:40.909Z,25.48
2018-10-19T14:25:09.969Z,24.61
2018-10-19T14:27:39.046Z,24.80
2018-10-19T14:30:08.134Z,24.72
2018-10-19T14:32:38.312Z,24.34
2018-10-19T14:35:07.409Z,24.27
2018-10-19T14:37:36.449Z,23.63
2018-10-19T14:42:41.265Z,21.69
2018-10-19T14:45:10.400Z,19.90
2018-10-19T14:47:39.381Z,19.71
2018-10-19T14:50:08.451Z,20.49
2018-10-19T14:52:37.605Z,21.33
2018-10-19T14:55:06.665Z,21.43
2018-10-19T14:57:35.720Z,21.60
2018-10-19T15:00:04.787Z,21.14
2018-10-19T15:02:34.825Z,20.60
2018-10-19T15:05:03.977Z,20.34
2018-10-19T15:07:32.993Z,20.65
2018-10-19T15:10:04.072Z,20.24
2018-10-19T15:12:33.103Z,20.56
2018-10-19T15:15:02.291Z,19.85
2018-10-19T15:17:31.222Z,19.26
2018-10-19T15:20:00.276Z,19.10
2018-10-19T15:25:05.072Z,19.62
2018-10-19T15:27:34.129Z,18.99
2018-10-19T15:30:03.233Z,18.31
2018-10-19T15:32:32.297Z,18.28
2018-10-19T15:35:02.364Z,18.45
2018-10-19T15:37:31.449Z,18.29
2018-10-19T15:42:36.233Z,17.93
2018-10-19T15:45:05.335Z,17.51
2018-10-19T15:50:10.092Z,17.02
2018-10-19T15:52:39.161Z,16.65
2018-10-19T15:55:10.112Z,16.32
2018-10-19T15:57:39.285Z,16.17
2018-10-19T16:00:08.392Z,15.99
2018-10-19T16:02:37.373Z,15.87
2018-10-19T16:05:06.426Z,15.78
2018-10-19T16:07:35.475Z,15.61
2018-10-19T16:10:04.532Z,15.58
2018-10-19T16:12:34.611Z,15.55
2018-10-19T16:15:03.747Z,15.27
2018-10-19T16:17:32.760Z,15.14
2018-10-19T16:20:01.789Z,14.98
2018-10-19T16:22:30.862Z,14.57
2018-10-19T16:24:59.926Z,14.08
2018-10-19T16:32:41.573Z,13.80
2018-10-19T16:35:10.617Z,13.71
2018-10-19T16:45:41.301Z,13.02
2018-10-19T16:48:20.843Z,12.61
2018-10-19T16:53:26.357Z,12.52
2018-10-19T16:55:55.398Z,12.28
2018-10-19T16:58:24.641Z,12.09
2018-10-19T17:00:53.710Z,11.95
2018-10-19T17:03:22.774Z,11.81
2018-10-19T17:08:27.596Z,11.91
2018-10-19T17:10:56.636Z,11.69
2018-10-19T17:13:25.707Z,11.49
2018-10-19T17:15:54.753Z,11.36
2018-10-19T17:18:23.821Z,11.38
2018-10-19T17:20:52.982Z,11.23
2018-10-19T17:23:22.042Z,10.98
2018-10-19T17:25:51.049Z,10.83
2018-10-19T17:28:20.105Z,10.84
2018-10-19T17:30:49.178Z,10.74
2018-10-19T17:33:22.386Z,10.77
2018-10-19T17:38:27.132Z,10.62
2018-10-19T17:40:56.211Z,10.66
2018-10-19T17:43:25.346Z,10.68
2018-10-19T17:45:54.294Z,10.44
2018-10-19T17:48:23.347Z,10.43
2018-10-19T17:50:54.340Z,10.30
2018-10-19T17:53:23.377Z,10.30
2018-10-19T17:55:52.434Z,10.28
2018-10-19T17:58:21.500Z,10.44
2018-10-19T18:00:50.560Z,10.19
2018-10-19T18:05:56.355Z,10.09
2018-10-19T18:08:25.381Z,10.01
2018-10-19T18:10:54.469Z,9.88
2018-10-19T18:13:23.487Z,9.70
2018-10-19T18:15:54.567Z,9.57
2018-10-19T18:18:25.560Z,9.55
2018-10-19T18:20:54.628Z,9.48
2018-10-19T18:25:59.473Z,9.53
2018-10-19T18:28:28.465Z,9.58
2018-10-19T18:30:57.518Z,9.63
2018-10-19T18:33:26.566Z,9.53
2018-10-19T18:35:55.633Z,9.45
2018-10-19T18:38:24.673Z,9.39
2018-10-19T18:40:54.663Z,9.38
2018-10-19T18:43:24.673Z,9.31
2018-10-19T18:45:53.731Z,9.27
2018-10-19T18:50:58.544Z,8.82
2018-10-19T18:56:03.336Z,8.67
2018-10-19T19:01:08.038Z,8.52
2018-10-19T19:03:37.125Z,8.46
2018-10-19T19:06:07.151Z,8.37
2018-10-19T19:08:38.096Z,8.36
2018-10-19T19:11:07.193Z,8.45
2018-10-19T19:13:36.321Z,8.42
2018-10-19T19:16:12.843Z,8.40
2018-10-19T19:18:41.920Z,8.30
2018-10-19T19:21:10.953Z,8.24
2018-10-19T19:23:40.057Z,8.25
2018-10-19T19:26:09.175Z,8.22
2018-10-19T19:28:39.973Z,8.19
2018-10-19T19:31:09.039Z,8.22
2018-10-19T19:33:44.922Z,8.15
2018-10-19T19:36:14.961Z,8.35
2018-10-19T19:38:43.993Z,8.19
2018-10-19T19:41:13.083Z,8.08
2018-10-19T19:43:42.090Z,7.94
2018-10-19T19:51:28.408Z,7.95
2018-10-19T19:53:57.546Z,7.88
2018-10-19T19:56:26.607Z,7.79
2018-10-19T19:58:55.736Z,7.79
2018-10-19T20:01:24.716Z,7.71
2018-10-19T20:11:40.945Z,7.71
2018-10-19T20:14:10.101Z,7.63
2018-10-19T20:16:39.061Z,7.57
2018-10-19T20:21:43.820Z,7.67
2018-10-19T20:26:49.530Z,7.52
2018-10-19T20:29:18.597Z,7.42
2018-10-19T20:31:47.646Z,7.36
2018-10-19T20:34:16.687Z,7.30
2018-10-19T20:36:45.739Z,7.26
2018-10-19T20:39:14.781Z,7.24
2018-10-19T20:44:19.542Z,7.28
2018-10-19T20:46:48.599Z,7.32
2018-10-19T20:49:17.699Z,7.36
2018-10-19T20:51:46.777Z,7.28
2018-10-19T20:54:15.802Z,7.24
2018-10-19T20:56:44.861Z,7.18
2018-10-19T20:59:13.950Z,7.16
2018-10-19T21:01:42.945Z,7.18
2018-10-19T21:04:12.006Z,7.17
2018-10-19T21:06:41.042Z,7.13
2018-10-19T21:09:10.084Z,7.14
2018-10-19T21:11:39.198Z,7.15
2018-10-19T21:14:08.295Z,7.11
2018-10-19T21:16:37.286Z,7.09
2018-10-19T21:19:06.380Z,7.15
2018-10-19T21:21:35.376Z,7.14
2018-10-19T21:24:04.418Z,7.14
2018-10-19T21:26:33.469Z,7.06
2018-10-19T21:29:02.547Z,7.03
2018-10-19T21:31:31.574Z,6.98
2018-10-19T21:34:00.605Z,6.91
2018-10-19T21:36:30.585Z,6.92
2018-10-19T21:38:59.642Z,6.88
2018-10-19T21:41:29.696Z,6.86
2018-10-19T21:43:59.733Z,6.87
2018-10-19T21:46:28.800Z,6.80
2018-10-19T21:48:57.845Z,6.74
2018-10-19T21:51:26.925Z,6.76
2018-10-19T21:53:55.936Z,6.70
2018-10-19T21:56:25.007Z,6.77
2018-10-19T21:58:55.039Z,6.76
2018-10-19T22:01:24.080Z,6.70
2018-10-19T22:03:53.137Z,6.69
2018-10-19T22:06:22.193Z,6.76
2018-10-19T22:08:51.231Z,6.70
2018-10-19T22:11:20.298Z,6.65
2018-10-19T22:13:50.337Z,6.68
2018-10-19T22:18:56.129Z,6.64
2018-10-19T22:21:25.191Z,6.58
2018-10-19T22:23:54.250Z,6.44
2018-10-19T22:26:23.331Z,6.21
2018-10-19T22:28:52.375Z,6.06
2018-10-19T22:31:21.417Z,6.04
2018-10-19T22:33:50.472Z,5.99
2018-10-19T22:36:19.512Z,5.98
2018-10-19T22:38:48.561Z,6.05
2018-10-19T22:43:54.282Z,6.05
2018-10-19T22:46:23.337Z,6.00
2018-10-19T22:51:30.065Z,5.99
2018-10-19T22:53:59.118Z,5.96
2018-10-19T22:56:28.213Z,5.92
2018-10-19T23:01:32.979Z,6.00
2018-10-19T23:06:37.852Z,6.02
2018-10-19T23:09:06.907Z,5.99
2018-10-19T23:11:35.974Z,6.08
2018-10-19T23:14:05.985Z,5.86
2018-10-19T23:19:10.841Z,5.59
2018-10-19T23:21:39.912Z,5.50
2018-10-19T23:24:09.879Z,5.47
2018-10-19T23:26:38.945Z,5.46
2018-10-19T23:29:07.979Z,5.51
2018-10-19T23:31:37.140Z,5.55
2018-10-19T23:34:06.081Z,5.63
2018-10-19T23:36:35.149Z,5.65
2018-10-19T23:39:04.201Z,5.61
2018-10-19T23:44:08.952Z,5.61
2018-10-19T23:46:38.000Z,5.64
2018-10-19T23:49:07.108Z,5.77
2018-10-19T23:51:36.093Z,5.76
2018-10-19T23:54:05.156Z,5.65
2018-10-19T23:56:34.212Z,5.63
2018-10-19T23:59:03.913Z,5.60
